sensor_id;sensor_type;location;lat;lon;timestamp;pressure;altitude;pressure_sealevel;temperature
68510;BMP180;55512;50.102;19.958;2023-07-20T00:01:18;98033.20;;;22.40
68510;BMP180;55512;50.102;19.958;2023-07-20T00:03:43;98033.80;;;22.30
68510;BMP180;55512;50.102;19.958;2023-07-20T00:06:09;98034.80;;;22.30
68510;BMP180;55512;50.102;19.958;2023-07-20T00:08:34;98030.40;;;22.30
68510;BMP180;55512;50.102;19.958;2023-07-20T00:11:02;98028.20;;;22.28
68510;BMP180;55512;50.102;19.958;2023-07-20T00:13:27;98024.00;;;22.20
68510;BMP180;55512;50.102;19.958;2023-07-20T00:15:53;98016.20;;;22.20
68510;BMP180;55512;50.102;19.958;2023-07-20T00:18:19;98024.00;;;22.20
68510;BMP180;55512;50.102;19.958;2023-07-20T00:20:47;98024.40;;;22.10
68510;BMP180;55512;50.102;19.958;2023-07-20T00:23:12;98023.80;;;22.10
68510;BMP180;55512;50.102;19.958;2023-07-20T00:25:38;98025.40;;;22.10
68510;BMP180;55512;50.102;19.958;2023-07-20T00:28:03;98018.20;;;22.04
68510;BMP180;55512;50.102;19.958;2023-07-20T00:30:29;98011.40;;;22.00
68510;BMP180;55512;50.102;19.958;2023-07-20T00:32:54;98012.00;;;21.90
68510;BMP180;55512;50.102;19.958;2023-07-20T00:35:19;98016.20;;;21.90
68510;BMP180;55512;50.102;19.958;2023-07-20T00:37:45;98014.00;;;21.80
68510;BMP180;55512;50.102;19.958;2023-07-20T00:40:10;98013.80;;;21.80
68510;BMP180;55512;50.102;19.958;2023-07-20T00:42:36;98008.20;;;21.70
68510;BMP180;55512;50.102;19.958;2023-07-20T00:45:02;98007.80;;;21.70
68510;BMP180;55512;50.102;19.958;2023-07-20T00:47:28;98006.80;;;21.60
68510;BMP180;55512;50.102;19.958;2023-07-20T00:49:54;97997.40;;;21.60
68510;BMP180;55512;50.102;19.958;2023-07-20T00:52:23;98001.20;;;21.60
68510;BMP180;55512;50.102;19.958;2023-07-20T00:54:49;98007.00;;;21.50
68510;BMP180;55512;50.102;19.958;2023-07-20T00:57:15;98009.60;;;21.50
68510;BMP180;55512;50.102;19.958;2023-07-20T00:59:41;98012.60;;;21.40
68510;BMP180;55512;50.102;19.958;2023-07-20T01:02:07;98008.60;;;21.30
68510;BMP180;55512;50.102;19.958;2023-07-20T01:04:34;98006.20;;;21.20
68510;BMP180;55512;50.102;19.958;2023-07-20T01:07:30;98013.80;;;21.20
68510;BMP180;55512;50.102;19.958;2023-07-20T01:12:47;98015.00;;;21.00
68510;BMP180;55512;50.102;19.958;2023-07-20T01:15:14;98024.60;;;20.98
68510;BMP180;55512;50.102;19.958;2023-07-20T01:17:39;98031.40;;;20.90
68510;BMP180;55512;50.102;19.958;2023-07-20T01:20:14;98039.20;;;20.80
68510;BMP180;55512;50.102;19.958;2023-07-20T01:26:57;98054.00;;;20.40
68510;BMP180;55512;50.102;19.958;2023-07-20T01:32:39;98075.60;;;20.00
68510;BMP180;55512;50.102;19.958;2023-07-20T01:35:07;98067.60;;;19.84
68510;BMP180;55512;50.102;19.958;2023-07-20T01:37:34;98066.20;;;19.76
68510;BMP180;55512;50.102;19.958;2023-07-20T01:40:01;98075.60;;;19.60
68510;BMP180;55512;50.102;19.958;2023-07-20T01:42:26;98081.40;;;19.58
68510;BMP180;55512;50.102;19.958;2023-07-20T01:44:52;98080.40;;;19.50
68510;BMP180;55512;50.102;19.958;2023-07-20T01:47:19;98075.00;;;19.40
68510;BMP180;55512;50.102;19.958;2023-07-20T01:49:50;98067.00;;;19.40
68510;BMP180;55512;50.102;19.958;2023-07-20T01:52:15;98075.00;;;19.30
68510;BMP180;55512;50.102;19.958;2023-07-20T01:54:41;98075.00;;;19.24
68510;BMP180;55512;50.102;19.958;2023-07-20T01:57:06;98071.20;;;19.20
68510;BMP180;55512;50.102;19.958;2023-07-20T01:59:32;98073.40;;;19.20
68510;BMP180;55512;50.102;19.958;2023-07-20T02:01:57;98066.20;;;19.20
68510;BMP180;55512;50.102;19.958;2023-07-20T02:04:23;98063.80;;;19.20
68510;BMP180;55512;50.102;19.958;2023-07-20T02:06:48;98060.80;;;19.20
68510;BMP180;55512;50.102;19.958;2023-07-20T02:09:13;98057.40;;;19.20
68510;BMP180;55512;50.102;19.958;2023-07-20T02:11:39;98050.00;;;19.20
68510;BMP180;55512;50.102;19.958;2023-07-20T02:14:04;98050.00;;;19.30
68510;BMP180;55512;50.102;19.958;2023-07-20T02:16:30;98049.40;;;19.38
68510;BMP180;55512;50.102;19.958;2023-07-20T02:18:55;98046.40;;;19.40
68510;BMP180;55512;50.102;19.958;2023-07-20T02:21:22;98041.20;;;19.50
68510;BMP180;55512;50.102;19.958;2023-07-20T02:23:48;98043.80;;;19.50
68510;BMP180;55512;50.102;19.958;2023-07-20T02:26:14;98037.80;;;19.56
68510;BMP180;55512;50.102;19.958;2023-07-20T02:28:40;98027.60;;;19.60
68510;BMP180;55512;50.102;19.958;2023-07-20T02:31:06;98035.80;;;19.70
68510;BMP180;55512;50.102;19.958;2023-07-20T02:33:32;98037.40;;;19.80
68510;BMP180;55512;50.102;19.958;2023-07-20T02:35:57;98032.20;;;19.80
68510;BMP180;55512;50.102;19.958;2023-07-20T02:38:23;98029.00;;;19.80
68510;BMP180;55512;50.102;19.958;2023-07-20T02:40:48;98011.20;;;19.80
68510;BMP180;55512;50.102;19.958;2023-07-20T02:43:15;98016.80;;;19.90
68510;BMP180;55512;50.102;19.958;2023-07-20T02:45:40;98025.40;;;19.90
68510;BMP180;55512;50.102;19.958;2023-07-20T02:48:08;98027.20;;;19.90
68510;BMP180;55512;50.102;19.958;2023-07-20T02:50:33;98038.80;;;20.00
68510;BMP180;55512;50.102;19.958;2023-07-20T02:53:00;98043.40;;;20.00
68510;BMP180;55512;50.102;19.958;2023-07-20T02:55:25;98043.60;;;20.00
68510;BMP180;55512;50.102;19.958;2023-07-20T02:57:51;98050.40;;;20.10
68510;BMP180;55512;50.102;19.958;2023-07-20T03:00:16;98052.40;;;20.10
68510;BMP180;55512;50.102;19.958;2023-07-20T03:02:45;98057.20;;;20.18
68510;BMP180;55512;50.102;19.958;2023-07-20T03:05:13;98056.80;;;20.18
68510;BMP180;55512;50.102;19.958;2023-07-20T03:07:39;98053.60;;;20.12
68510;BMP180;55512;50.102;19.958;2023-07-20T03:10:06;98058.20;;;20.10
68510;BMP180;55512;50.102;19.958;2023-07-20T03:12:35;98062.00;;;20.10
68510;BMP180;55512;50.102;19.958;2023-07-20T03:15:02;98066.40;;;20.02
68510;BMP180;55512;50.102;19.958;2023-07-20T03:17:28;98075.40;;;20.00
68510;BMP180;55512;50.102;19.958;2023-07-20T03:19:53;98079.40;;;20.06
68510;BMP180;55512;50.102;19.958;2023-07-20T03:22:19;98079.80;;;20.10
68510;BMP180;55512;50.102;19.958;2023-07-20T03:24:44;98080.80;;;20.10
68510;BMP180;55512;50.102;19.958;2023-07-20T03:27:10;98081.00;;;20.06
68510;BMP180;55512;50.102;19.958;2023-07-20T03:29:35;98089.20;;;20.10
68510;BMP180;55512;50.102;19.958;2023-07-20T03:32:01;98086.20;;;20.10
68510;BMP180;55512;50.102;19.958;2023-07-20T03:34:26;98092.60;;;20.00
68510;BMP180;55512;50.102;19.958;2023-07-20T03:36:51;98086.40;;;20.00
68510;BMP180;55512;50.102;19.958;2023-07-20T03:39:17;98088.20;;;20.00
68510;BMP180;55512;50.102;19.958;2023-07-20T03:41:42;98091.40;;;20.00
68510;BMP180;55512;50.102;19.958;2023-07-20T03:44:08;98095.40;;;19.90
68510;BMP180;55512;50.102;19.958;2023-07-20T03:46:33;98100.80;;;19.80
68510;BMP180;55512;50.102;19.958;2023-07-20T03:49:00;98097.20;;;19.78
68510;BMP180;55512;50.102;19.958;2023-07-20T03:51:26;98089.40;;;19.70
68510;BMP180;55512;50.102;19.958;2023-07-20T03:53:51;98086.80;;;19.70
68510;BMP180;55512;50.102;19.958;2023-07-20T03:56:17;98110.40;;;19.60
68510;BMP180;55512;50.102;19.958;2023-07-20T03:58:42;98142.20;;;19.50
68510;BMP180;55512;50.102;19.958;2023-07-20T04:01:08;98120.60;;;19.32
68510;BMP180;55512;50.102;19.958;2023-07-20T04:03:35;98122.00;;;19.20
68510;BMP180;55512;50.102;19.958;2023-07-20T04:06:01;98131.00;;;19.00
68510;BMP180;55512;50.102;19.958;2023-07-20T04:08:27;98137.80;;;18.90
68510;BMP180;55512;50.102;19.958;2023-07-20T04:10:52;98154.00;;;18.80
68510;BMP180;55512;50.102;19.958;2023-07-20T04:13:18;98157.60;;;18.70
68510;BMP180;55512;50.102;19.958;2023-07-20T04:15:44;98157.80;;;18.68
68510;BMP180;55512;50.102;19.958;2023-07-20T04:18:09;98155.40;;;18.58
68510;BMP180;55512;50.102;19.958;2023-07-20T04:20:35;98155.20;;;18.50
68510;BMP180;55512;50.102;19.958;2023-07-20T04:23:00;98159.80;;;18.40
68510;BMP180;55512;50.102;19.958;2023-07-20T04:25:26;98162.60;;;18.40
68510;BMP180;55512;50.102;19.958;2023-07-20T04:27:51;98177.20;;;18.40
68510;BMP180;55512;50.102;19.958;2023-07-20T04:30:21;98182.20;;;18.40
68510;BMP180;55512;50.102;19.958;2023-07-20T04:32:48;98192.00;;;18.46
68510;BMP180;55512;50.102;19.958;2023-07-20T04:35:45;98194.60;;;18.60
68510;BMP180;55512;50.102;19.958;2023-07-20T04:38:10;98192.60;;;18.80
68510;BMP180;55512;50.102;19.958;2023-07-20T04:40:36;98200.40;;;18.92
68510;BMP180;55512;50.102;19.958;2023-07-20T04:43:01;98210.20;;;19.10
68510;BMP180;55512;50.102;19.958;2023-07-20T04:45:26;98215.80;;;19.20
68510;BMP180;55512;50.102;19.958;2023-07-20T04:47:52;98212.60;;;19.20
68510;BMP180;55512;50.102;19.958;2023-07-20T04:50:17;98216.40;;;19.30
68510;BMP180;55512;50.102;19.958;2023-07-20T04:52:43;98221.60;;;19.30
68510;BMP180;55512;50.102;19.958;2023-07-20T04:55:08;98226.00;;;19.30
68510;BMP180;55512;50.102;19.958;2023-07-20T04:57:34;98233.40;;;19.34
68510;BMP180;55512;50.102;19.958;2023-07-20T04:59:59;98234.20;;;19.30
68510;BMP180;55512;50.102;19.958;2023-07-20T05:02:25;98229.20;;;19.30
68510;BMP180;55512;50.102;19.958;2023-07-20T05:04:50;98232.80;;;19.38
68510;BMP180;55512;50.102;19.958;2023-07-20T05:07:16;98248.00;;;19.40
68510;BMP180;55512;50.102;19.958;2023-07-20T05:09:41;98249.60;;;19.40
68510;BMP180;55512;50.102;19.958;2023-07-20T05:12:07;98255.00;;;19.40
68510;BMP180;55512;50.102;19.958;2023-07-20T05:14:32;98252.80;;;19.40
68510;BMP180;55512;50.102;19.958;2023-07-20T05:16:58;98251.60;;;19.40
68510;BMP180;55512;50.102;19.958;2023-07-20T05:19:24;98254.00;;;19.40
68510;BMP180;55512;50.102;19.958;2023-07-20T05:21:51;98253.40;;;19.50
68510;BMP180;55512;50.102;19.958;2023-07-20T05:24:16;98248.20;;;19.42
68510;BMP180;55512;50.102;19.958;2023-07-20T05:26:42;98247.00;;;19.40
68510;BMP180;55512;50.102;19.958;2023-07-20T05:29:07;98261.60;;;19.40
68510;BMP180;55512;50.102;19.958;2023-07-20T05:31:32;98252.40;;;19.40
68510;BMP180;55512;50.102;19.958;2023-07-20T05:33:58;98252.60;;;19.40
68510;BMP180;55512;50.102;19.958;2023-07-20T05:36:26;98250.20;;;19.40
68510;BMP180;55512;50.102;19.958;2023-07-20T05:38:52;98241.20;;;19.40
68510;BMP180;55512;50.102;19.958;2023-07-20T05:41:18;98233.00;;;19.48
68510;BMP180;55512;50.102;19.958;2023-07-20T05:43:43;98222.20;;;19.50
68510;BMP180;55512;50.102;19.958;2023-07-20T05:46:09;98225.80;;;19.60
68510;BMP180;55512;50.102;19.958;2023-07-20T05:48:35;98226.80;;;19.70
68510;BMP180;55512;50.102;19.958;2023-07-20T05:51:01;98224.40;;;19.90
68510;BMP180;55512;50.102;19.958;2023-07-20T05:53:26;98227.00;;;20.00
68510;BMP180;55512;50.102;19.958;2023-07-20T05:55:54;98231.20;;;20.08
68510;BMP180;55512;50.102;19.958;2023-07-20T05:58:20;98232.00;;;20.18
68510;BMP180;55512;50.102;19.958;2023-07-20T06:00:50;98236.00;;;20.20
68510;BMP180;55512;50.102;19.958;2023-07-20T06:03:16;98231.40;;;20.20
68510;BMP180;55512;50.102;19.958;2023-07-20T06:05:42;98230.80;;;20.20
68510;BMP180;55512;50.102;19.958;2023-07-20T06:08:08;98222.60;;;20.20
68510;BMP180;55512;50.102;19.958;2023-07-20T06:10:33;98219.40;;;20.20
68510;BMP180;55512;50.102;19.958;2023-07-20T06:12:59;98226.00;;;20.28
68510;BMP180;55512;50.102;19.958;2023-07-20T06:15:28;98226.60;;;20.22
68510;BMP180;55512;50.102;19.958;2023-07-20T06:17:55;98233.20;;;20.22
68510;BMP180;55512;50.102;19.958;2023-07-20T06:20:22;98228.80;;;20.20
68510;BMP180;55512;50.102;19.958;2023-07-20T06:22:47;98235.40;;;20.20
68510;BMP180;55512;50.102;19.958;2023-07-20T06:25:13;98237.00;;;20.20
68510;BMP180;55512;50.102;19.958;2023-07-20T06:27:38;98234.80;;;20.20
68510;BMP180;55512;50.102;19.958;2023-07-20T06:30:05;98224.40;;;20.16
68510;BMP180;55512;50.102;19.958;2023-07-20T06:32:30;98217.00;;;20.10
68510;BMP180;55512;50.102;19.958;2023-07-20T06:34:56;98217.20;;;20.10
68510;BMP180;55512;50.102;19.958;2023-07-20T06:41:00;98236.80;;;20.02
68510;BMP180;55512;50.102;19.958;2023-07-20T06:43:25;98233.80;;;20.04
68510;BMP180;55512;50.102;19.958;2023-07-20T06:45:52;98233.20;;;20.10
68510;BMP180;55512;50.102;19.958;2023-07-20T06:48:21;98235.20;;;20.10
68510;BMP180;55512;50.102;19.958;2023-07-20T06:50:47;98240.80;;;20.20
68510;BMP180;55512;50.102;19.958;2023-07-20T06:53:13;98239.40;;;20.30
68510;BMP180;55512;50.102;19.958;2023-07-20T06:55:38;98234.20;;;20.40
68510;BMP180;55512;50.102;19.958;2023-07-20T06:58:04;98233.20;;;20.50
68510;BMP180;55512;50.102;19.958;2023-07-20T07:00:30;98236.80;;;20.50
68510;BMP180;55512;50.102;19.958;2023-07-20T07:02:55;98233.00;;;20.60
68510;BMP180;55512;50.102;19.958;2023-07-20T07:05:21;98229.00;;;20.70
68510;BMP180;55512;50.102;19.958;2023-07-20T07:07:47;98237.80;;;20.70
68510;BMP180;55512;50.102;19.958;2023-07-20T07:10:12;98229.40;;;20.70
68510;BMP180;55512;50.102;19.958;2023-07-20T07:12:38;98247.20;;;20.70
68510;BMP180;55512;50.102;19.958;2023-07-20T07:15:04;98242.60;;;20.60
68510;BMP180;55512;50.102;19.958;2023-07-20T07:17:33;98254.60;;;20.60
68510;BMP180;55512;50.102;19.958;2023-07-20T07:19:58;98253.80;;;20.50
68510;BMP180;55512;50.102;19.958;2023-07-20T07:22:24;98248.20;;;20.50
68510;BMP180;55512;50.102;19.958;2023-07-20T07:24:50;98247.40;;;20.50
68510;BMP180;55512;50.102;19.958;2023-07-20T07:27:16;98244.80;;;20.58
68510;BMP180;55512;50.102;19.958;2023-07-20T07:29:42;98243.20;;;20.60
68510;BMP180;55512;50.102;19.958;2023-07-20T07:32:10;98239.00;;;20.60
68510;BMP180;55512;50.102;19.958;2023-07-20T07:34:37;98231.60;;;20.80
68510;BMP180;55512;50.102;19.958;2023-07-20T07:37:04;98238.80;;;20.90
68510;BMP180;55512;50.102;19.958;2023-07-20T07:39:30;98242.40;;;21.10
68510;BMP180;55512;50.102;19.958;2023-07-20T07:41:56;98239.20;;;21.30
68510;BMP180;55512;50.102;19.958;2023-07-20T07:44:22;98239.40;;;21.48
68510;BMP180;55512;50.102;19.958;2023-07-20T07:46:48;98249.20;;;21.60
68510;BMP180;55512;50.102;19.958;2023-07-20T07:49:15;98243.60;;;21.70
68510;BMP180;55512;50.102;19.958;2023-07-20T07:51:40;98245.60;;;21.90
68510;BMP180;55512;50.102;19.958;2023-07-20T07:54:06;98248.00;;;22.00
68510;BMP180;55512;50.102;19.958;2023-07-20T07:56:31;98246.20;;;22.00
68510;BMP180;55512;50.102;19.958;2023-07-20T07:58:56;98249.60;;;22.00
68510;BMP180;55512;50.102;19.958;2023-07-20T08:01:22;98249.20;;;22.10
68510;BMP180;55512;50.102;19.958;2023-07-20T08:03:47;98250.80;;;22.20
68510;BMP180;55512;50.102;19.958;2023-07-20T08:06:14;98255.00;;;22.40
68510;BMP180;55512;50.102;19.958;2023-07-20T08:08:39;98253.20;;;22.60
68510;BMP180;55512;50.102;19.958;2023-07-20T08:11:05;98260.40;;;22.70
68510;BMP180;55512;50.102;19.958;2023-07-20T08:13:31;98268.60;;;22.90
68510;BMP180;55512;50.102;19.958;2023-07-20T08:15:57;98268.20;;;22.90
68510;BMP180;55512;50.102;19.958;2023-07-20T08:18:22;98267.00;;;22.90
68510;BMP180;55512;50.102;19.958;2023-07-20T08:20:48;98269.00;;;22.90
68510;BMP180;55512;50.102;19.958;2023-07-20T08:23:14;98279.00;;;22.90
68510;BMP180;55512;50.102;19.958;2023-07-20T08:25:40;98280.20;;;22.88
68510;BMP180;55512;50.102;19.958;2023-07-20T08:28:10;98275.80;;;22.90
68510;BMP180;55512;50.102;19.958;2023-07-20T08:30:42;98278.60;;;22.92
68510;BMP180;55512;50.102;19.958;2023-07-20T08:33:18;98280.60;;;23.00
68510;BMP180;55512;50.102;19.958;2023-07-20T08:35:45;98283.40;;;23.10
68510;BMP180;55512;50.102;19.958;2023-07-20T08:38:11;98279.60;;;23.14
68510;BMP180;55512;50.102;19.958;2023-07-20T08:40:43;98282.80;;;23.30
68510;BMP180;55512;50.102;19.958;2023-07-20T08:43:14;98284.40;;;23.34
68510;BMP180;55512;50.102;19.958;2023-07-20T08:45:42;98291.60;;;23.50
68510;BMP180;55512;50.102;19.958;2023-07-20T08:48:08;98299.80;;;23.50
68510;BMP180;55512;50.102;19.958;2023-07-20T08:50:35;98293.20;;;23.60
68510;BMP180;55512;50.102;19.958;2023-07-20T08:53:02;98292.40;;;23.60
68510;BMP180;55512;50.102;19.958;2023-07-20T08:55:29;98293.60;;;23.70
68510;BMP180;55512;50.102;19.958;2023-07-20T08:57:56;98296.60;;;23.80
68510;BMP180;55512;50.102;19.958;2023-07-20T09:00:25;98296.80;;;23.70
68510;BMP180;55512;50.102;19.958;2023-07-20T09:02:52;98292.80;;;23.70
68510;BMP180;55512;50.102;19.958;2023-07-20T09:05:24;98292.00;;;23.76
68510;BMP180;55512;50.102;19.958;2023-07-20T09:07:52;98304.00;;;23.70
68510;BMP180;55512;50.102;19.958;2023-07-20T09:10:22;98306.00;;;23.60
68510;BMP180;55512;50.102;19.958;2023-07-20T09:12:48;98304.60;;;23.46
68510;BMP180;55512;50.102;19.958;2023-07-20T09:15:15;98301.80;;;23.40
68510;BMP180;55512;50.102;19.958;2023-07-20T09:17:51;98303.60;;;23.40
68510;BMP180;55512;50.102;19.958;2023-07-20T09:20:19;98293.00;;;23.30
68510;BMP180;55512;50.102;19.958;2023-07-20T09:22:45;98298.60;;;23.40
68510;BMP180;55512;50.102;19.958;2023-07-20T09:25:18;98292.20;;;23.50
68510;BMP180;55512;50.102;19.958;2023-07-20T09:27:49;98282.20;;;23.68
68510;BMP180;55512;50.102;19.958;2023-07-20T09:30:16;98292.40;;;23.80
68510;BMP180;55512;50.102;19.958;2023-07-20T09:32:47;98286.60;;;23.80
68510;BMP180;55512;50.102;19.958;2023-07-20T09:35:14;98283.40;;;23.88
68510;BMP180;55512;50.102;19.958;2023-07-20T09:37:58;98285.60;;;24.00
68510;BMP180;55512;50.102;19.958;2023-07-20T09:40:25;98288.00;;;23.90
68510;BMP180;55512;50.102;19.958;2023-07-20T09:42:53;98284.60;;;23.94
68510;BMP180;55512;50.102;19.958;2023-07-20T09:45:39;98282.00;;;24.10
68510;BMP180;55512;50.102;19.958;2023-07-20T09:48:06;98287.00;;;24.22
68510;BMP180;55512;50.102;19.958;2023-07-20T09:50:33;98296.00;;;24.30
68510;BMP180;55512;50.102;19.958;2023-07-20T09:53:01;98301.60;;;24.30
68510;BMP180;55512;50.102;19.958;2023-07-20T09:55:29;98297.80;;;24.30
68510;BMP180;55512;50.102;19.958;2023-07-20T09:57:56;98302.20;;;24.30
68510;BMP180;55512;50.102;19.958;2023-07-20T10:00:21;98304.40;;;24.20
68510;BMP180;55512;50.102;19.958;2023-07-20T10:02:51;98304.60;;;23.90
68510;BMP180;55512;50.102;19.958;2023-07-20T10:05:18;98294.60;;;23.90
68510;BMP180;55512;50.102;19.958;2023-07-20T10:07:50;98291.20;;;23.80
68510;BMP180;55512;50.102;19.958;2023-07-20T10:10:18;98299.60;;;23.80
68510;BMP180;55512;50.102;19.958;2023-07-20T10:12:48;98295.40;;;23.70
68510;BMP180;55512;50.102;19.958;2023-07-20T10:15:32;98298.40;;;23.70
68510;BMP180;55512;50.102;19.958;2023-07-20T10:18:18;98294.40;;;23.80
68510;BMP180;55512;50.102;19.958;2023-07-20T10:20:51;98294.20;;;23.82
68510;BMP180;55512;50.102;19.958;2023-07-20T10:23:17;98292.20;;;23.90
68510;BMP180;55512;50.102;19.958;2023-07-20T10:25:43;98303.00;;;23.90
68510;BMP180;55512;50.102;19.958;2023-07-20T10:28:10;98298.20;;;23.90
68510;BMP180;55512;50.102;19.958;2023-07-20T10:30:37;98290.60;;;24.00
68510;BMP180;55512;50.102;19.958;2023-07-20T10:33:04;98310.60;;;24.10
68510;BMP180;55512;50.102;19.958;2023-07-20T10:35:31;98303.00;;;24.10
68510;BMP180;55512;50.102;19.958;2023-07-20T10:38:15;98298.60;;;24.10
68510;BMP180;55512;50.102;19.958;2023-07-20T10:40:40;98298.80;;;24.10
68510;BMP180;55512;50.102;19.958;2023-07-20T10:43:08;98292.40;;;24.00
68510;BMP180;55512;50.102;19.958;2023-07-20T10:45:41;98308.60;;;24.10
68510;BMP180;55512;50.102;19.958;2023-07-20T10:48:19;98302.80;;;24.14
68510;BMP180;55512;50.102;19.958;2023-07-20T10:51:10;98287.20;;;24.20
68510;BMP180;55512;50.102;19.958;2023-07-20T10:53:36;98285.00;;;24.26
68510;BMP180;55512;50.102;19.958;2023-07-20T10:56:19;98291.00;;;24.30
68510;BMP180;55512;50.102;19.958;2023-07-20T10:58:44;98299.40;;;24.30
68510;BMP180;55512;50.102;19.958;2023-07-20T11:01:16;98281.40;;;24.30
68510;BMP180;55512;50.102;19.958;2023-07-20T11:03:42;98320.80;;;24.40
68510;BMP180;55512;50.102;19.958;2023-07-20T11:09:07;98278.00;;;24.46
68510;BMP180;55512;50.102;19.958;2023-07-20T11:11:40;98298.00;;;24.60
68510;BMP180;55512;50.102;19.958;2023-07-20T11:14:25;98300.20;;;24.60
68510;BMP180;55512;50.102;19.958;2023-07-20T11:16:53;98309.80;;;24.60
68510;BMP180;55512;50.102;19.958;2023-07-20T11:19:29;98287.60;;;24.60
68510;BMP180;55512;50.102;19.958;2023-07-20T11:21:56;98294.40;;;24.50
68510;BMP180;55512;50.102;19.958;2023-07-20T11:24:23;98292.60;;;24.40
68510;BMP180;55512;50.102;19.958;2023-07-20T11:26:51;98288.40;;;24.40
68510;BMP180;55512;50.102;19.958;2023-07-20T11:29:20;98294.80;;;24.40
68510;BMP180;55512;50.102;19.958;2023-07-20T11:31:47;98298.60;;;24.40
68510;BMP180;55512;50.102;19.958;2023-07-20T11:34:16;98289.40;;;24.30
68510;BMP180;55512;50.102;19.958;2023-07-20T11:36:44;98284.80;;;24.20
68510;BMP180;55512;50.102;19.958;2023-07-20T11:39:14;98283.40;;;24.20
68510;BMP180;55512;50.102;19.958;2023-07-20T11:41:47;98302.20;;;24.06
68510;BMP180;55512;50.102;19.958;2023-07-20T11:44:13;98303.60;;;23.90
68510;BMP180;55512;50.102;19.958;2023-07-20T11:46:39;98294.20;;;23.84
68510;BMP180;55512;50.102;19.958;2023-07-20T11:49:05;98295.80;;;23.88
68510;BMP180;55512;50.102;19.958;2023-07-20T11:51:31;98292.60;;;23.90
68510;BMP180;55512;50.102;19.958;2023-07-20T11:53:58;98279.00;;;23.90
68510;BMP180;55512;50.102;19.958;2023-07-20T11:56:25;98278.40;;;23.98
68510;BMP180;55512;50.102;19.958;2023-07-20T11:58:55;98281.00;;;24.00
68510;BMP180;55512;50.102;19.958;2023-07-20T12:01:24;98283.60;;;24.10
68510;BMP180;55512;50.102;19.958;2023-07-20T12:03:51;98257.60;;;24.14
68510;BMP180;55512;50.102;19.958;2023-07-20T12:06:17;98267.40;;;24.30
68510;BMP180;55512;50.102;19.958;2023-07-20T12:08:43;98268.00;;;24.40
68510;BMP180;55512;50.102;19.958;2023-07-20T12:11:10;98256.40;;;24.50
68510;BMP180;55512;50.102;19.958;2023-07-20T12:13:43;98252.00;;;24.60
68510;BMP180;55512;50.102;19.958;2023-07-20T12:16:14;98251.20;;;24.82
68510;BMP180;55512;50.102;19.958;2023-07-20T12:18:43;98237.60;;;25.04
68510;BMP180;55512;50.102;19.958;2023-07-20T12:21:10;98240.60;;;25.30
68510;BMP180;55512;50.102;19.958;2023-07-20T12:23:39;98247.80;;;25.44
68510;BMP180;55512;50.102;19.958;2023-07-20T12:26:09;98236.40;;;25.56
68510;BMP180;55512;50.102;19.958;2023-07-20T12:28:41;98233.60;;;25.70
68510;BMP180;55512;50.102;19.958;2023-07-20T12:31:09;98249.60;;;25.80
68510;BMP180;55512;50.102;19.958;2023-07-20T12:33:36;98253.80;;;25.70
68510;BMP180;55512;50.102;19.958;2023-07-20T12:36:02;98237.80;;;25.70
68510;BMP180;55512;50.102;19.958;2023-07-20T12:38:28;98237.40;;;25.70
68510;BMP180;55512;50.102;19.958;2023-07-20T12:40:54;98233.80;;;25.70
68510;BMP180;55512;50.102;19.958;2023-07-20T12:43:24;98230.80;;;25.78
68510;BMP180;55512;50.102;19.958;2023-07-20T12:45:49;98225.60;;;25.90
68510;BMP180;55512;50.102;19.958;2023-07-20T12:48:15;98228.80;;;26.00
68510;BMP180;55512;50.102;19.958;2023-07-20T12:50:40;98227.60;;;26.12
68510;BMP180;55512;50.102;19.958;2023-07-20T12:53:06;98228.60;;;26.20
68510;BMP180;55512;50.102;19.958;2023-07-20T12:55:32;98231.80;;;26.30
68510;BMP180;55512;50.102;19.958;2023-07-20T12:57:57;98223.40;;;26.30
68510;BMP180;55512;50.102;19.958;2023-07-20T13:00:23;98224.40;;;26.50
68510;BMP180;55512;50.102;19.958;2023-07-20T13:02:49;98226.00;;;26.60
68510;BMP180;55512;50.102;19.958;2023-07-20T13:05:15;98217.60;;;26.78
68510;BMP180;55512;50.102;19.958;2023-07-20T13:07:41;98232.20;;;26.90
68510;BMP180;55512;50.102;19.958;2023-07-20T13:10:11;98223.40;;;27.00
68510;BMP180;55512;50.102;19.958;2023-07-20T13:12:38;98219.20;;;27.00
68510;BMP180;55512;50.102;19.958;2023-07-20T13:15:06;98217.60;;;27.00
68510;BMP180;55512;50.102;19.958;2023-07-20T13:17:36;98216.40;;;27.12
68510;BMP180;55512;50.102;19.958;2023-07-20T13:20:04;98221.80;;;27.30
68510;BMP180;55512;50.102;19.958;2023-07-20T13:22:33;98218.40;;;27.40
68510;BMP180;55512;50.102;19.958;2023-07-20T13:24:59;98216.20;;;27.40
68510;BMP180;55512;50.102;19.958;2023-07-20T13:27:25;98227.00;;;27.40
68510;BMP180;55512;50.102;19.958;2023-07-20T13:29:53;98218.80;;;27.30
68510;BMP180;55512;50.102;19.958;2023-07-20T13:32:19;98222.40;;;27.24
68510;BMP180;55512;50.102;19.958;2023-07-20T13:34:45;98214.80;;;27.30
68510;BMP180;55512;50.102;19.958;2023-07-20T13:37:11;98208.80;;;27.40
68510;BMP180;55512;50.102;19.958;2023-07-20T13:39:38;98212.80;;;27.60
68510;BMP180;55512;50.102;19.958;2023-07-20T13:42:05;98213.60;;;27.70
68510;BMP180;55512;50.102;19.958;2023-07-20T13:44:31;98222.20;;;27.88
68510;BMP180;55512;50.102;19.958;2023-07-20T13:46:57;98222.80;;;27.96
68510;BMP180;55512;50.102;19.958;2023-07-20T13:49:23;98221.00;;;28.10
68510;BMP180;55512;50.102;19.958;2023-07-20T13:51:49;98229.40;;;28.14
68510;BMP180;55512;50.102;19.958;2023-07-20T13:54:14;98230.00;;;28.10
68510;BMP180;55512;50.102;19.958;2023-07-20T13:56:40;98231.00;;;28.00
68510;BMP180;55512;50.102;19.958;2023-07-20T13:59:06;98238.80;;;28.00
68510;BMP180;55512;50.102;19.958;2023-07-20T14:01:31;98229.40;;;27.90
68510;BMP180;55512;50.102;19.958;2023-07-20T14:04:00;98239.80;;;28.00
68510;BMP180;55512;50.102;19.958;2023-07-20T14:06:29;98227.40;;;28.00
68510;BMP180;55512;50.102;19.958;2023-07-20T14:08:55;98241.80;;;28.10
68510;BMP180;55512;50.102;19.958;2023-07-20T14:11:20;98242.80;;;28.10
68510;BMP180;55512;50.102;19.958;2023-07-20T14:13:45;98234.40;;;28.10